Aérodrome :
LOGIN :

S'inscrire | Disclaimer

   EN    FR    IT 

 










Légende :    VFR   VFR Marginal   IFR   IFR Intensif   IFR Très Intensif
Visi : 
Plafond : 
>= 8 km
>= 3000ft
5 à 8 km
1000 à 3000 ft
1500m à 5 km
500 à 1000 ft
800 à 1500m
200 à 500 ft
< 800m
< 200 ft
Symboles :   Orages  Brouillard  Fortes neiges  Fortes précipitations  Vent > 20 kt
SIGMETs :   Divers  Orages  Givrage  Turbulence  Onde Orograph.  Cendres Volcan.







- Altitude de l'aérodrome : 1791 ft
- Code IATA : AOT


LIMW - Aosta

DERNIER METAR :
  • 211450Z AUTO 09010KT 9999 SCT052/// BKN093/// 24/14 Q1011

METARs EXPIRÉS :
  • 211420Z AUTO 10013KT 9999 SCT096/// 25/14 Q1011
  • 211350Z AUTO 10013KT 9999 SCT093/// 26/13 Q1012
  • 211320Z AUTO 11012KT 9999 FEW096/// 26/14 Q1012
  • 211250Z AUTO 10012KT 070V130 9999 FEW130/// 25/13 Q1012
  • 211220Z AUTO 10013KT 9999 SCT130/// 24/13 Q1012

TAF TAF LIMW
Valide du 21 à 15h jusqu'au 22 à 00h UTC


211400Z 2115/2124 10015KT 9999 SCT100
PROB40
TEMPO 2115/2119 TSRA
BECMG 2119/2121 VRB05KT
Pas de NOTAMs connus pour ce terrain.
3 SIGMETs publiés pour la FIR Milano (LIMM) :
 
Annulation du SIGMET 7 
LIMM SIGMET 9 VALID 211353/211635 LIIP
LIMM MILANO FIR CNL SIGMET 7 211235/211635=
Orages noyés dans la masse
LIMM SIGMET 8 VALID 211400/211800 LIIP
LIMM MILANO FIR EMBD TS OBS ENTIRE FIR TOP ABV FL400 STNR NC=
SIGMET 7  ANNULÉ :
Orages noyés dans la masse
LIMM SIGMET 7 VALID 211235/211635 LIIP
LIMM MILANO FIR EMBD TS OBS NW OF LINE N4338 E01123 - N4517 E01306 TOP ABV FL400 STNR NC=



MET'MAP, la Météo Aéronautique d'un coup d'oeil ! - Copyright ORBIFLY Décembre 2007 - Disclaimer

ORBIFLY MET'MAP TEAM :

Programmation & Développement : Alexandra Zaïnal
Conception & Développement : Baudouin d'Aumeries
Co-Programmation & Développement : Marc-Olivier Méhu
Soutien technique & logistique : Manuel Goepfert

Contact : metmap@orbifly.com




SOURCES & CREDITS :

   NOAA